Aviation Digital Data Service (ADDS)

Output produced by TAFs form (1220 UTC 02 August 2015)
found at http://aviationweather.gov/adds/tafs/
 
KTEX 021120Z 0212/0312 14005KT P6SM VCSH SCT050 BKN090 
     FM021800 20006KT P6SM -SHRA VCTS FEW025 BKN040CB OVC060 
     TEMPO 0218/0222 VRB15G25KT 4SM TSRA SCT025 OVC040CB 
     FM030200 12004KT P6SM -SHRA SCT030 OVC050